• Join FlightAware (Why Join?)
  • Login
  • US Flag 
06:06AM EDT


 

Airport Tracker/Info


-or-


 

Live Flight TrackerFlight Track Log ✈ SLI2424 ✈ 05-May-2012 ✈ MMMX / MEX - MMMA / MAM

Flight Track Log - Related Links

Times and Time Zones

All times are in EDT time to prevent confusion due to time zone crossing. See the SLI2424 flight status page for this flight to view local times or setup timezone preferences in your user account.

Time Position Orientation Groundspeed Altitude Reporting Facility
EDT Latitude Longitude Course Direction KTS MPH feet Rate Location/Type
09:54PM 19.6232 -99.0284 12° North  Level Estimated
09:55PM 19.7451 -98.9999 12° North  Level Estimated
09:56PM 19.8671 -98.9713 12° North  Level Estimated
09:57PM 19.9890 -98.9426 12° North  Level Estimated
09:58PM 20.1108 -98.9139 12° North  Level Estimated
09:59PM 20.2327 -98.8852 12° North  Level Estimated
10:00PM 20.3546 -98.8565 12° North  Level Estimated
10:01PM 20.4765 -98.8276 12° North  Level Estimated
10:02PM 20.5984 -98.7988 13° North  Level Estimated
10:03PM 20.7202 -98.7699 13° North  Level Estimated
10:04PM 20.8421 -98.7409 13° North  Level Estimated
10:05PM 20.9640 -98.7119 13° North  Level Estimated
10:06PM 21.0858 -98.6829 13° North  Level Estimated
10:07PM 21.2077 -98.6538 13° North  Level Estimated
10:08PM 21.3295 -98.6246 13° North  Level Estimated
10:09PM 21.4514 -98.5954 13° North  Level Estimated
10:10PM 21.5732 -98.5662 13° North  Level Estimated
10:11PM 21.6950 -98.5369 13° North  Level Estimated
10:12PM 21.8169 -98.5076 13° North  Level Estimated
10:13PM 21.9387 -98.4782 13° North  Level Estimated
10:14PM 22.0605 -98.4487 13° North  Level Estimated
10:15PM 22.1823 -98.4193 13° North  Level Estimated
10:16PM 22.3041 -98.3897 13° North  Level Estimated
10:17PM 22.4259 -98.3601 13° North  Level Estimated
10:18PM 22.5477 -98.3305 13° North  Level Estimated
10:19PM 22.6695 -98.3008 13° North  Level Estimated
10:20PM 22.7913 -98.2710 13° North  Level Estimated
10:21PM 22.9131 -98.2412 13° North  Level Estimated
10:22PM 23.0348 -98.2114 13° North  Level Estimated
10:23PM 23.1566 -98.1814 13° North  Level Estimated
10:24PM 23.2784 -98.1515 13° North  Level Estimated
10:25PM 23.4001 -98.1215 13° North  Level Estimated
10:26PM 23.5219 -98.0914 13° North  Level Estimated
10:27PM 23.6436 -98.0612 13° North  Level Estimated
10:28PM 23.7654 -98.0311 13° North  Level Estimated
10:29PM 23.8871 -98.0008 13° North  Level Estimated
10:30PM 24.0088 -97.9705 13° North  Level Estimated
10:31PM 24.1305 -97.9402 13° North  Level Estimated
10:32PM 24.2523 -97.9098 13° North  Level Estimated
10:33PM 24.3740 -97.8793 13° North  Level Estimated
10:34PM 24.4957 -97.8487 13° North  Level Estimated
10:35PM 24.6174 -97.8182 13° North  Level Estimated
10:36PM 24.7390 -97.7875 13° North  Level Estimated
10:37PM 24.8607 -97.7568 13° North  Level Estimated
10:38PM 24.9824 -97.7260 13° North  Level Estimated
10:39PM 25.1041 -97.6952 13° North  Level Estimated
10:40PM 25.2257 -97.6643 13° North  Level Estimated
10:41PM 25.3474 -97.6333 13° North  Level Estimated
10:42PM 25.4690 -97.6023 13° North  Level Estimated
10:43PM 25.5907 -97.5712 13° North  Level Estimated
10:44PM 25.7123 -97.5401 13° North  Level Estimated
10:45PM 25.8340 -97.5089 193° South  Level Estimated
10:46PM 25.7123 -97.5401 13° North  Level Estimated
10:47PM 25.8340 -97.5089 193° South  Level Estimated
10:48PM 25.7123 -97.5401 13° North  Level Estimated
10:49PM 25.8340 -97.5089 193° South  Level Estimated
10:50PM 25.7123 -97.5401 13° North  Level Estimated
10:51PM 25.8340 -97.5089 193° South  Level Estimated
10:52PM 25.7123 -97.5401 13° North  Level Estimated
10:53PM 25.8340 -97.5089 193° South  Level Estimated
10:54PM 25.7123 -97.5401 13° North  Level Estimated
10:55PM 25.8340 -97.5089 193° South  Level Estimated
10:56PM 25.7123 -97.5401 13° North  Level Estimated
10:57PM 25.8340 -97.5089 193° South  Level Estimated
10:58PM 25.7123 -97.5401 13° North  Level Estimated
10:59PM 25.8340 -97.5089 193° South  Level Estimated
11:00PM 25.7123 -97.5401 193° South  Level Estimated